createdAt,value
2019-04-14T00:01:59.562Z,5.80
2019-04-14T00:04:40.135Z,5.90
2019-04-14T00:07:14.378Z,6.40
2019-04-14T00:09:47.653Z,6.80
2019-04-14T00:12:20.845Z,6.80
2019-04-14T00:14:53.448Z,6.60
2019-04-14T00:17:26.236Z,6.40
2019-04-14T00:19:59.004Z,6.20
2019-04-14T00:22:33.636Z,6.20
2019-04-14T00:25:08.670Z,6.20
2019-04-14T00:27:45.120Z,6.00
2019-04-14T00:30:18.937Z,6.10
2019-04-14T00:32:55.257Z,6.00
2019-04-14T00:35:49.579Z,6.00
2019-04-14T00:38:30.132Z,5.90
2019-04-14T00:41:42.458Z,5.80
2019-04-14T00:44:27.626Z,5.80
2019-04-14T00:47:22.196Z,5.70
2019-04-14T00:49:55.176Z,5.70
2019-04-14T00:52:27.861Z,5.70
2019-04-14T00:55:00.966Z,5.90
2019-04-14T00:57:33.545Z,5.80
2019-04-14T01:00:08.241Z,5.80
2019-04-14T01:02:41.124Z,5.90
2019-04-14T01:05:15.795Z,6.00
2019-04-14T01:07:48.372Z,6.00
2019-04-14T01:10:32.193Z,6.10
2019-04-14T01:13:39.727Z,6.10
2019-04-14T01:17:00.463Z,5.90
2019-04-14T01:20:16.720Z,5.80
2019-04-14T01:23:43.346Z,5.80
2019-04-14T01:27:01.712Z,6.10
2019-04-14T01:30:08.730Z,6.50
2019-04-14T01:32:52.202Z,6.50
2019-04-14T01:35:33.489Z,6.70
2019-04-14T01:38:17.386Z,6.70
2019-04-14T01:40:53.543Z,6.50
2019-04-14T01:43:30.141Z,6.70
2019-04-14T01:46:20.952Z,7.10
2019-04-14T01:49:07.146Z,6.80
2019-04-14T01:52:21.603Z,6.80
2019-04-14T01:55:28.713Z,6.70
2019-04-14T01:58:25.063Z,6.40
2019-04-14T02:04:20.466Z,6.00
2019-04-14T02:07:16.613Z,6.00
2019-04-14T02:10:00.326Z,5.90
2019-04-14T02:12:54.204Z,5.80
2019-04-14T02:15:33.041Z,5.80
2019-04-14T02:18:16.399Z,5.80
2019-04-14T02:21:12.734Z,5.80
2019-04-14T02:24:04.843Z,5.70
2019-04-14T02:26:50.921Z,5.70
2019-04-14T02:33:13.560Z,5.60
2019-04-14T02:42:17.533Z,5.50
2019-04-14T02:44:53.765Z,5.50
2019-04-14T02:50:18.326Z,5.50
2019-04-14T02:53:23.803Z,5.50
2019-04-14T02:56:29.206Z,5.50
2019-04-14T02:59:11.769Z,5.50
2019-04-14T03:02:09.809Z,5.50
2019-04-14T03:07:38.231Z,5.40
2019-04-14T03:10:24.528Z,5.40
2019-04-14T03:13:09.223Z,5.40
2019-04-14T03:16:07.974Z,5.40
2019-04-14T03:22:05.095Z,5.40
2019-04-14T03:24:49.132Z,5.40
2019-04-14T03:33:32.109Z,5.50
2019-04-14T03:36:16.659Z,5.50
2019-04-14T03:38:40.238Z,5.40
2019-04-14T03:44:09.997Z,5.50
2019-04-14T03:46:58.983Z,5.50
2019-04-14T03:49:42.419Z,5.50
2019-04-14T03:52:13.537Z,5.50
2019-04-14T03:54:52.660Z,5.40
2019-04-14T03:57:14.926Z,5.40
2019-04-14T03:59:50.503Z,5.40
2019-04-14T04:02:33.625Z,5.40
2019-04-14T04:05:15.178Z,5.50
2019-04-14T04:07:56.047Z,5.40
2019-04-14T04:10:40.041Z,5.50
2019-04-14T04:13:24.426Z,5.50
2019-04-14T04:16:37.622Z,5.50
2019-04-14T04:23:16.998Z,5.50
2019-04-14T04:26:15.048Z,5.50
2019-04-14T04:29:02.744Z,5.50
2019-04-14T04:32:12.208Z,5.50
2019-04-14T04:35:13.132Z,5.60
2019-04-14T04:38:29.089Z,5.50
2019-04-14T04:41:23.222Z,5.50
2019-04-14T04:43:58.242Z,5.50
2019-04-14T04:46:59.352Z,5.50
2019-04-14T04:49:40.342Z,5.50
2019-04-14T04:52:21.263Z,5.50
2019-04-14T04:55:17.641Z,5.40
2019-04-14T04:57:48.490Z,5.40
2019-04-14T05:00:50.882Z,5.50
2019-04-14T05:03:27.757Z,5.50
2019-04-14T05:07:03.730Z,5.50
2019-04-14T05:10:08.922Z,5.50
2019-04-14T05:13:07.296Z,5.60
2019-04-14T05:16:14.877Z,5.60
2019-04-14T05:19:18.563Z,5.60
2019-04-14T05:21:51.751Z,5.60
2019-04-14T05:24:35.310Z,5.60
2019-04-14T05:27:10.004Z,5.70
2019-04-14T05:32:56.519Z,5.70
2019-04-14T05:35:35.762Z,5.70
2019-04-14T05:38:10.520Z,5.70
2019-04-14T05:40:47.703Z,5.70
2019-04-14T05:43:30.317Z,5.80
2019-04-14T05:46:19.178Z,5.80
2019-04-14T05:48:57.784Z,5.80
2019-04-14T05:51:30.845Z,5.90
2019-04-14T05:54:09.936Z,5.90
2019-04-14T05:57:02.294Z,6.00
2019-04-14T05:59:41.797Z,6.00
2019-04-14T06:02:18.299Z,6.10
2019-04-14T06:05:01.860Z,6.10
2019-04-14T06:07:43.789Z,6.20
2019-04-14T06:10:31.214Z,6.20
2019-04-14T06:13:21.638Z,6.30
2019-04-14T06:16:03.431Z,6.30
2019-04-14T06:18:37.793Z,6.30
2019-04-14T06:21:24.889Z,6.40
2019-04-14T06:24:16.131Z,6.40
2019-04-14T06:27:03.332Z,6.40
2019-04-14T06:30:09.495Z,6.50
2019-04-14T06:32:48.579Z,6.40
2019-04-14T06:35:41.463Z,6.50
2019-04-14T06:38:41.688Z,6.50
2019-04-14T06:41:27.222Z,6.60
2019-04-14T06:44:16.275Z,6.60
2019-04-14T06:47:11.903Z,6.70
2019-04-14T06:49:55.381Z,6.80
2019-04-14T06:52:30.029Z,6.90
2019-04-14T06:55:17.217Z,6.90
2019-04-14T06:57:49.309Z,7.00
2019-04-14T07:00:51.064Z,7.10
2019-04-14T07:03:39.605Z,7.20
2019-04-14T07:06:34.124Z,7.30
2019-04-14T07:09:17.321Z,7.40
2019-04-14T07:14:47.668Z,7.50
2019-04-14T07:20:32.274Z,7.50
2019-04-14T07:23:41.643Z,7.50
2019-04-14T07:26:21.246Z,7.40
2019-04-14T07:32:15.116Z,7.40
2019-04-14T07:35:30.422Z,7.30
2019-04-14T07:38:44.830Z,7.30
2019-04-14T07:41:43.655Z,7.40
2019-04-14T07:44:55.042Z,7.40
2019-04-14T07:48:25.677Z,7.50
2019-04-14T07:51:57.576Z,7.80
2019-04-14T07:54:54.421Z,8.30
2019-04-14T07:58:08.399Z,8.60
2019-04-14T08:04:30.035Z,9.10
2019-04-14T08:07:09.417Z,9.30
2019-04-14T08:10:09.063Z,9.30
2019-04-14T08:12:54.005Z,9.40
2019-04-14T08:15:40.200Z,9.40
2019-04-14T08:18:27.474Z,9.50
2019-04-14T08:21:02.143Z,9.60
2019-04-14T08:23:43.680Z,9.90
2019-04-14T08:26:17.898Z,10.10
2019-04-14T08:28:53.672Z,10.40
2019-04-14T08:31:33.599Z,11.10
2019-04-14T08:34:06.031Z,11.60
2019-04-14T08:36:38.400Z,11.80
2019-04-14T08:39:10.883Z,12.00
2019-04-14T08:42:07.184Z,12.00
2019-04-14T08:44:43.370Z,11.80
2019-04-14T08:47:33.293Z,11.70
2019-04-14T08:50:38.992Z,11.50
2019-04-14T08:53:30.664Z,11.50
2019-04-14T08:56:20.757Z,11.70
2019-04-14T08:59:20.088Z,11.70
2019-04-14T09:02:08.492Z,11.60
2019-04-14T09:04:53.845Z,11.50
2019-04-14T09:07:36.886Z,11.50
2019-04-14T09:10:15.407Z,11.40
2019-04-14T09:12:50.198Z,11.30
2019-04-14T09:15:23.596Z,11.30
2019-04-14T09:17:57.919Z,11.30
2019-04-14T09:20:31.280Z,11.40
2019-04-14T09:23:04.743Z,11.30
2019-04-14T09:25:37.934Z,11.40
2019-04-14T09:28:10.996Z,11.50
2019-04-14T09:30:43.520Z,11.90
2019-04-14T09:33:16.844Z,12.30
2019-04-14T09:35:49.726Z,12.60
2019-04-14T09:38:22.461Z,13.00
2019-04-14T09:40:55.932Z,13.50
2019-04-14T09:43:28.331Z,14.20
2019-04-14T09:46:01.800Z,15.10
2019-04-14T09:48:34.329Z,15.50
2019-04-14T09:51:06.825Z,15.50
2019-04-14T09:53:39.382Z,15.50
2019-04-14T09:56:12.090Z,15.40
2019-04-14T09:58:45.059Z,15.20
2019-04-14T10:01:18.177Z,15.40
2019-04-14T10:03:51.065Z,15.50
2019-04-14T10:06:23.487Z,15.50
2019-04-14T10:08:56.213Z,15.50
2019-04-14T10:11:28.959Z,15.40
2019-04-14T10:14:01.061Z,15.50
2019-04-14T10:16:33.593Z,15.60
2019-04-14T10:19:06.377Z,15.70
2019-04-14T10:21:38.494Z,15.70
2019-04-14T10:24:11.658Z,15.60
2019-04-14T10:26:45.297Z,15.40
2019-04-14T10:29:18.793Z,15.40
2019-04-14T10:31:53.276Z,15.20
2019-04-14T10:34:27.129Z,15.10
2019-04-14T10:37:00.880Z,14.90
2019-04-14T10:39:34.118Z,14.80
2019-04-14T10:42:07.817Z,14.50
2019-04-14T10:44:41.820Z,14.10
2019-04-14T10:47:15.194Z,13.80
2019-04-14T10:49:48.710Z,13.40
2019-04-14T10:52:22.108Z,13.30
2019-04-14T10:54:56.295Z,13.30
2019-04-14T10:57:28.429Z,13.20
2019-04-14T11:00:00.544Z,13.30
2019-04-14T11:02:33.946Z,13.30
2019-04-14T11:05:06.467Z,13.40
2019-04-14T11:07:38.636Z,13.60
2019-04-14T11:10:12.093Z,13.70
2019-04-14T11:12:44.204Z,13.90
2019-04-14T11:15:16.737Z,14.10
2019-04-14T11:17:49.208Z,14.70
2019-04-14T11:20:22.374Z,15.40
2019-04-14T11:23:03.220Z,15.40
2019-04-14T11:25:28.321Z,15.30
2019-04-14T11:28:00.634Z,15.40
2019-04-14T11:30:32.861Z,15.30
2019-04-14T11:33:24.824Z,15.40
2019-04-14T11:36:06.183Z,15.60
2019-04-14T11:38:42.999Z,15.60
2019-04-14T11:44:34.032Z,15.40
2019-04-14T11:47:07.259Z,15.20
2019-04-14T11:49:40.595Z,14.80
2019-04-14T11:52:13.234Z,14.60
2019-04-14T11:54:45.911Z,14.40
2019-04-14T11:57:19.894Z,14.30
2019-04-14T12:00:21.486Z,14.20
2019-04-14T12:03:06.156Z,14.00
2019-04-14T12:06:03.760Z,13.80
2019-04-14T12:08:46.436Z,13.70
2019-04-14T12:11:19.052Z,13.70
2019-04-14T12:13:51.618Z,13.70
2019-04-14T12:16:24.025Z,13.80
2019-04-14T12:18:56.125Z,13.80
2019-04-14T12:21:29.227Z,13.80
2019-04-14T12:24:01.543Z,13.80
2019-04-14T12:26:33.867Z,13.90
2019-04-14T12:29:06.425Z,14.00
2019-04-14T12:31:39.635Z,14.10
2019-04-14T12:34:11.971Z,14.10
2019-04-14T12:36:44.588Z,14.30
2019-04-14T12:39:25.967Z,14.30
2019-04-14T12:42:12.248Z,14.40
2019-04-14T12:45:18.250Z,14.30
2019-04-14T12:48:09.174Z,14.30
2019-04-14T12:50:45.827Z,14.40
2019-04-14T12:53:18.014Z,14.50
2019-04-14T12:55:50.100Z,14.40
2019-04-14T12:58:28.541Z,14.40
2019-04-14T13:01:06.225Z,14.30
2019-04-14T13:03:42.046Z,14.40
2019-04-14T13:06:14.566Z,14.40
2019-04-14T13:08:46.828Z,14.20
2019-04-14T13:11:19.021Z,14.20
2019-04-14T13:13:51.770Z,14.30
2019-04-14T13:16:23.839Z,14.40
2019-04-14T13:18:56.114Z,14.50
2019-04-14T13:21:28.317Z,14.70
2019-04-14T13:24:00.455Z,14.80
2019-04-14T13:26:33.123Z,14.90
2019-04-14T13:29:05.612Z,15.00
2019-04-14T13:31:37.960Z,15.00
2019-04-14T13:34:10.073Z,15.00
2019-04-14T13:36:42.389Z,14.90
2019-04-14T13:39:14.585Z,14.90
2019-04-14T13:41:47.435Z,14.90
2019-04-14T13:44:19.806Z,14.90
2019-04-14T13:46:52.126Z,14.90
2019-04-14T13:49:24.263Z,14.90
2019-04-14T13:51:56.633Z,14.90
2019-04-14T13:54:28.706Z,15.00
2019-04-14T13:57:00.887Z,15.00
2019-04-14T13:59:33.231Z,14.90
2019-04-14T14:02:05.496Z,15.00
2019-04-14T14:04:39.001Z,15.00
2019-04-14T14:07:11.112Z,15.00
2019-04-14T14:09:43.675Z,15.00
2019-04-14T14:12:25.112Z,14.90
2019-04-14T14:15:15.631Z,14.80
2019-04-14T14:18:06.544Z,14.70
2019-04-14T14:21:00.254Z,14.80
2019-04-14T14:23:49.543Z,14.80
2019-04-14T14:26:22.955Z,14.90
2019-04-14T14:28:55.013Z,15.00
2019-04-14T14:31:27.390Z,15.10
2019-04-14T14:33:59.527Z,15.20
2019-04-14T14:36:31.795Z,15.30
2019-04-14T14:39:04.665Z,15.40
2019-04-14T14:41:37.260Z,15.40
2019-04-14T14:44:09.405Z,15.30
2019-04-14T14:46:48.030Z,15.20
2019-04-14T14:49:54.699Z,15.10
2019-04-14T14:52:26.936Z,15.10
2019-04-14T14:54:59.012Z,15.10
2019-04-14T14:57:31.165Z,15.10
2019-04-14T15:00:03.424Z,15.00
2019-04-14T15:02:37.882Z,15.00
2019-04-14T15:05:13.111Z,14.90
2019-04-14T15:07:45.195Z,14.90
2019-04-14T15:10:17.375Z,14.90
2019-04-14T15:12:49.593Z,14.90
2019-04-14T15:15:21.806Z,14.80
2019-04-14T15:17:54.331Z,14.80
2019-04-14T15:20:26.508Z,14.90
2019-04-14T15:22:58.610Z,14.80
2019-04-14T15:25:30.886Z,14.70
2019-04-14T15:28:02.948Z,14.70
2019-04-14T15:30:35.156Z,14.70
2019-04-14T15:33:07.434Z,14.70
2019-04-14T15:35:42.115Z,14.70
2019-04-14T15:38:14.997Z,14.80
2019-04-14T15:40:48.354Z,14.90
2019-04-14T15:43:21.065Z,14.90
2019-04-14T15:45:55.107Z,14.90
2019-04-14T15:48:27.548Z,14.90
2019-04-14T15:50:59.994Z,14.90
2019-04-14T15:53:38.285Z,14.90
2019-04-14T15:56:07.272Z,14.70
2019-04-14T15:58:47.745Z,14.70
2019-04-14T16:01:38.987Z,14.50
2019-04-14T16:04:48.083Z,14.40
2019-04-14T16:07:33.647Z,14.30
2019-04-14T16:10:40.143Z,14.20
2019-04-14T16:13:16.604Z,14.00
2019-04-14T16:16:13.776Z,14.00
2019-04-14T16:19:05.503Z,13.90
2019-04-14T16:21:38.158Z,13.90
2019-04-14T16:24:10.959Z,13.90
2019-04-14T16:26:53.991Z,13.90
2019-04-14T16:29:32.312Z,13.80
2019-04-14T16:32:21.864Z,13.80
2019-04-14T16:35:15.706Z,13.70
2019-04-14T16:37:47.916Z,13.70
2019-04-14T16:40:20.138Z,13.70
2019-04-14T16:42:52.211Z,13.60
2019-04-14T16:45:24.303Z,13.60
2019-04-14T16:47:56.543Z,13.60
2019-04-14T16:50:28.983Z,13.60
2019-04-14T16:53:09.990Z,13.50
2019-04-14T16:55:53.923Z,13.50
2019-04-14T16:58:36.048Z,13.40
2019-04-14T17:01:11.586Z,13.30
2019-04-14T17:03:43.747Z,13.30
2019-04-14T17:06:15.802Z,13.20
2019-04-14T17:08:47.966Z,13.20
2019-04-14T17:11:20.030Z,13.20
2019-04-14T17:14:06.037Z,13.10
2019-04-14T17:16:50.614Z,13.10
2019-04-14T17:19:30.281Z,13.10
2019-04-14T17:22:21.259Z,13.00
2019-04-14T17:25:05.468Z,13.00
2019-04-14T17:27:44.834Z,12.90
2019-04-14T17:30:34.555Z,12.90
2019-04-14T17:33:31.656Z,12.80
2019-04-14T17:36:22.140Z,12.70
2019-04-14T17:39:16.456Z,12.70
2019-04-14T17:41:56.952Z,12.70
2019-04-14T17:44:38.131Z,12.60
2019-04-14T17:47:31.925Z,12.60
2019-04-14T17:50:21.732Z,12.60
2019-04-14T17:53:00.628Z,12.50
2019-04-14T17:55:49.831Z,12.40
2019-04-14T17:58:34.151Z,12.40
2019-04-14T18:01:40.842Z,12.30
2019-04-14T18:04:30.722Z,12.30
2019-04-14T18:07:14.601Z,12.30
2019-04-14T18:10:21.391Z,12.40
2019-04-14T18:13:18.642Z,12.30
2019-04-14T18:16:13.281Z,12.30
2019-04-14T18:19:02.752Z,12.20
2019-04-14T18:21:47.463Z,12.20
2019-04-14T18:24:20.000Z,12.20
2019-04-14T18:26:52.179Z,12.20
2019-04-14T18:29:33.869Z,12.20
2019-04-14T18:32:39.615Z,12.10
2019-04-14T18:35:32.264Z,12.10
2019-04-14T18:38:18.893Z,12.10
2019-04-14T18:41:12.467Z,12.00
2019-04-14T18:43:55.053Z,12.10
2019-04-14T18:46:47.169Z,12.00
2019-04-14T18:49:38.950Z,12.10
2019-04-14T18:52:32.894Z,12.00
2019-04-14T18:55:39.356Z,12.00
2019-04-14T18:58:29.054Z,12.00
2019-04-14T19:01:06.864Z,12.00
2019-04-14T19:03:39.291Z,12.00
2019-04-14T19:06:11.879Z,12.00
2019-04-14T19:08:44.877Z,11.90
2019-04-14T19:11:49.150Z,11.90
2019-04-14T19:14:26.388Z,12.00
2019-04-14T19:17:06.059Z,11.90
2019-04-14T19:19:40.855Z,11.90
2019-04-14T19:22:13.453Z,11.90
2019-04-14T19:24:46.181Z,11.90
2019-04-14T19:27:18.433Z,12.00
2019-04-14T19:29:50.541Z,12.10
2019-04-14T19:32:22.637Z,12.10
2019-04-14T19:34:55.429Z,12.10
2019-04-14T19:37:27.653Z,12.00
2019-04-14T19:40:00.044Z,12.00
2019-04-14T19:42:32.116Z,11.90
2019-04-14T19:45:04.475Z,11.90
2019-04-14T19:47:36.580Z,11.90
2019-04-14T19:50:09.222Z,11.90
2019-04-14T19:52:41.995Z,11.80
2019-04-14T19:55:20.560Z,11.90
2019-04-14T19:57:49.603Z,12.00
2019-04-14T20:00:23.155Z,12.00
2019-04-14T20:02:55.257Z,12.00
2019-04-14T20:05:27.393Z,11.90
2019-04-14T20:07:59.607Z,11.80
2019-04-14T20:10:31.750Z,11.80
2019-04-14T20:13:04.383Z,11.70
2019-04-14T20:15:43.821Z,11.70
2019-04-14T20:18:26.202Z,11.70
2019-04-14T20:21:16.211Z,11.70
2019-04-14T20:23:53.560Z,11.70
2019-04-14T20:26:53.304Z,11.70
2019-04-14T20:29:31.816Z,11.70
2019-04-14T20:32:11.977Z,11.70
2019-04-14T20:34:44.138Z,11.70
2019-04-14T20:37:16.328Z,11.80
2019-04-14T20:39:48.604Z,11.80
2019-04-14T20:42:20.769Z,11.90
2019-04-14T20:44:53.961Z,12.00
2019-04-14T20:47:26.886Z,12.10
2019-04-14T20:49:59.316Z,12.10
2019-04-14T20:52:31.677Z,12.20
2019-04-14T20:55:04.309Z,12.20
2019-04-14T20:57:36.751Z,12.10
2019-04-14T21:00:10.013Z,12.10
2019-04-14T21:03:04.010Z,12.00
2019-04-14T21:05:55.281Z,12.10
2019-04-14T21:08:46.495Z,12.00
2019-04-14T21:11:25.780Z,12.00
2019-04-14T21:14:14.559Z,11.80
2019-04-14T21:16:58.164Z,11.70
2019-04-14T21:19:43.963Z,11.60
2019-04-14T21:22:33.947Z,11.60
2019-04-14T21:25:21.477Z,11.50
2019-04-14T21:28:08.096Z,11.50
2019-04-14T21:31:12.420Z,11.40
2019-04-14T21:33:53.507Z,11.20
2019-04-14T21:36:34.437Z,11.10
2019-04-14T21:39:31.658Z,11.00
2019-04-14T21:42:03.718Z,11.00
2019-04-14T21:44:35.908Z,11.00
2019-04-14T21:47:07.935Z,11.10
2019-04-14T21:49:41.102Z,11.10
2019-04-14T21:52:36.555Z,11.10
2019-04-14T21:55:09.424Z,11.10
2019-04-14T21:57:49.997Z,11.10
2019-04-14T22:01:14.725Z,11.00
2019-04-14T22:04:04.433Z,11.00
2019-04-14T22:06:39.006Z,10.90
2019-04-14T22:09:18.260Z,10.90
2019-04-14T22:11:51.171Z,10.80
2019-04-14T22:14:23.592Z,10.80
2019-04-14T22:16:55.800Z,10.80
2019-04-14T22:19:28.054Z,10.80
2019-04-14T22:22:00.092Z,10.80
2019-04-14T22:24:32.370Z,10.90
2019-04-14T22:27:04.786Z,10.80
2019-04-14T22:29:37.310Z,10.80
2019-04-14T22:32:09.654Z,10.90
2019-04-14T22:34:41.913Z,10.90
2019-04-14T22:37:14.150Z,10.90
2019-04-14T22:39:46.613Z,11.00
2019-04-14T22:42:18.765Z,11.00
2019-04-14T22:44:51.280Z,11.10
2019-04-14T22:47:23.646Z,11.20
2019-04-14T22:49:55.709Z,11.30
2019-04-14T22:52:27.758Z,11.40
2019-04-14T22:54:59.982Z,11.40
2019-04-14T22:57:32.011Z,11.40
2019-04-14T23:00:05.468Z,11.40
2019-04-14T23:03:11.998Z,11.40
2019-04-14T23:06:21.240Z,11.40
2019-04-14T23:09:01.303Z,11.50
2019-04-14T23:11:58.134Z,11.60
2019-04-14T23:14:51.925Z,11.60
2019-04-14T23:17:45.837Z,11.60
2019-04-14T23:20:36.101Z,11.60
2019-04-14T23:23:25.375Z,11.60
2019-04-14T23:25:57.472Z,11.60
2019-04-14T23:28:29.525Z,11.60
2019-04-14T23:31:01.888Z,11.50
2019-04-14T23:33:34.147Z,11.60
2019-04-14T23:36:06.276Z,11.50
2019-04-14T23:38:38.337Z,11.50
2019-04-14T23:41:10.389Z,11.50
2019-04-14T23:43:42.550Z,11.50
2019-04-14T23:46:15.027Z,11.40
2019-04-14T23:48:47.096Z,11.50
2019-04-14T23:51:19.178Z,11.50
2019-04-14T23:53:51.426Z,11.50
2019-04-14T23:56:23.715Z,11.40
2019-04-14T23:58:55.847Z,11.50
